This is the latest recevied weather packets stored in our database for station/object AD4WX-13. If no packets are shown the sender has not sent any weather packets the latest 10 day(s).
| Time | Temp. | Humidity | Pressure | Rain* | Wind** | Luminosity | Snow |
|---|---|---|---|---|---|---|---|
| 1777215616 | 24.44° C | 64% | 1011.5 hPa | 0 mm | - | 680 W/m² | - |
| 1777214310 | 23.89° C | 68% | 1011.6 hPa | 0 mm | - | 617 W/m² | - |
| 1777206990 | 15.56° C | 88% | 1010.8 hPa | 0 mm | - | 200 W/m² | - |
| 1777206292 | 13.89° C | 89% | 1010.4 hPa | 0 mm | - | 162 W/m² | - |
| 1777200747 | 11.67° C | 90% | 1009.8 hPa | 0 mm | - | 0 W/m² | - |
| 1777195176 | 12.78° C | 90% | 1009.7 hPa | 0 mm | - | 0 W/m² | - |
| 1777187830 | 13.33° C | 91% | 1008.5 hPa | 0 mm | - | 0 W/m² | - |
| 1777179262 | 15° C | 91% | 1009.2 hPa | 0 mm | - | 0 W/m² | - |
| 1777176113 | 15° C | 91% | 1008.8 hPa | 0 mm | - | 0 W/m² | - |
| 1777169970 | 16.67° C | 89% | 1008 hPa | 0 mm | - | 0 W/m² | - |
| 1777168681 | 17.22° C | 88% | 1007.6 hPa | 0 mm | - | 0 W/m² | - |
| 1777168012 | 17.78° C | 88% | 1007.6 hPa | 0 mm | - | 0 W/m² | - |
| 1777158822 | 24.44° C | 63% | 1006.4 hPa | 0 mm | - | 60 W/m² | - |
| 1777156348 | 26.11° C | 56% | 1006.2 hPa | 0 mm | - | 383 W/m² | - |
| 1777153268 | 25° C | 63% | 1006.1 hPa | 0 mm | - | 149 W/m² | - |
| 1777152616 | 25.56° C | 61% | 1006.1 hPa | 0 mm | - | 116 W/m² | - |
| 1777149511 | 26.11° C | 62% | 1006.4 hPa | 0 mm | - | 221 W/m² | - |
| 1777144643 | 26.67° C | 59% | 1007 hPa | 0 mm | - | 325 W/m² | - |
| 1777143399 | 26.11° C | 62% | 1007.2 hPa | 0 mm | - | 350 W/m² | - |
| 1777142116 | 26.67° C | 57% | 1007.3 hPa | 0 mm | - | 304 W/m² | - |
| 1777137221 | 24.44° C | 71% | 1008 hPa | 0 mm | - | 559 W/m² | - |
| 1777135315 | 24.44° C | 73% | 1008 hPa | 0 mm | - | 686 W/m² | - |
| 1777134654 | 23.89° C | 77% | 1008.1 hPa | 0 mm | - | 1049 W/m² | - |
| 1777131568 | 20.56° C | 89% | 1008.1 hPa | 0 mm | - | 373 W/m² | - |
| 1777123560 | 17.22° C | 88% | 1008 hPa | 0 mm | - | 246 W/m² | - |
* Rain latest hour (hover to see other rain measurements)
** Current wind speed in m/s (hover to see current wind gust speed)